Pagina principale
METAR-TAF:

METAR-TAF

Aeroporti :

Aeroporto di Perugia

Perugia, Italia

latitudine: 43-05N, longitudine: 012-30E, altezza: 208 m

Osservazione

Il bollettino è stato emesso 15 minuti fa, alle 01:50 UTC
Vento 3 kt da nord
Temperature 15°C
Umidità 100%
Pressione 1016 hPa
Visibilità 10 km o più

METAR: LIRZ 280150Z AUTO 35003KT 9999 SCT066/// 15/15 Q1016

Ora: 04:05 (02:05 UTC)

Previsione

Il bollettino è stato emesso 3 ore e 5 minuti fa, alle 23:00 UTC
Previsione valida dal 28 alle 00 UTC al 28 alle 24 UTC
Vento 5 kt da direzioni variabili
Visibilità 10 km o più
Nubi sparse ad un'altezza di 2500 ft
Evoluzione graduale
dal 28 alle 12 UTC al 28 alle 14 UTC
Vento 10 kt da ovest
Temporaneamente
dal 28 alle 15 UTC al 28 alle 20 UTC
rovesci di pioggia
Evoluzione graduale
dal 28 alle 16 UTC al 28 alle 18 UTC
Vento 6 kt da nord

TAF: LIRZ 272300Z 2800/2824 VRB05KT 9999 SCT025 BECMG 2812/2814 28010KT TEMPO 2815/2820 SHRA BECMG 2816/2818 01006KT

Osservazioni e previsioni meteorologiche di più di 4000 aeroporti (messaggi METAR e TAF).

Le stazioni disponibili sono rappresentate dai dischi gialli e rossi sulla carta.

Puntare il mouse per vedere il nome della stazione.

Clicca sopra per visualizzare le osservazioni e previsioni meteorologiche.

Per cambiare la mappa : fare clic sui pulsanti verdi con una croce nera per ingrandire, il pulsante verde con un trattino per diminuire, o sulla freccia verde per le mappe adiacenti.


METAR-TAF: